Time;durP1;ratioP1;P1;durP2;ratioP2;P2;SDS_P1;SDS_P2;PMS_P1;PMS_P2;Temp;Humidity;BMP_temperature;BMP_pressure;BME280_temperature;BME280_humidity;BME280_pressure;Samples;Min_cycle;Max_cycle;Signal;HPM_P1;HPM_P2
2023/05/30 00:01:38;;;;;;;9.68;1.77;;;14.80;82.80;;;;;;5109401;28;20023;-57
2023/05/30 00:04:04;;;;;;;7.60;1.73;;;14.80;83.30;;;;;;5107667;27;20043;-55
2023/05/30 00:06:29;;;;;;;7.93;1.98;;;14.70;83.50;;;;;;5107103;27;20028;-58
2023/05/30 00:08:55;;;;;;;17.00;1.85;;;14.70;83.80;;;;;;5109884;28;20038;-59
2023/05/30 00:11:23;;;;;;;8.32;1.60;;;14.60;85.70;;;;;;5111955;28;20030;-57
2023/05/30 00:13:49;;;;;;;8.18;1.55;;;14.60;85.40;;;;;;5109591;28;20035;-55
2023/05/30 00:16:15;;;;;;;8.18;2.17;;;14.50;87.30;;;;;;5109432;28;20447;-57
2023/05/30 00:18:41;;;;;;;11.00;1.80;;;14.40;86.30;;;;;;5108757;28;20066;-56
2023/05/30 00:21:09;;;;;;;9.82;1.88;;;14.40;84.30;;;;;;5108212;28;20024;-59
2023/05/30 00:23:37;;;;;;;7.07;1.90;;;14.40;85.50;;;;;;5107629;28;20068;-59
2023/05/30 00:26:04;;;;;;;9.43;2.08;;;14.30;84.70;;;;;;5110163;28;20020;-59
2023/05/30 00:28:30;;;;;;;15.52;1.88;;;14.30;86.70;;;;;;5108929;28;20035;-60
2023/05/30 00:30:55;;;;;;;6.32;1.80;;;14.30;84.50;;;;;;5104337;28;20036;-56
2023/05/30 00:33:21;;;;;;;13.18;2.08;;;14.20;83.50;;;;;;5106478;28;20715;-55
2023/05/30 00:35:47;;;;;;;6.13;1.25;;;14.20;84.00;;;;;;5105799;28;20323;-60
2023/05/30 00:38:13;;;;;;;6.45;1.48;;;14.20;84.00;;;;;;5106074;27;20035;-56
2023/05/30 00:40:38;;;;;;;10.10;1.60;;;14.20;83.70;;;;;;5110054;28;20015;-58
2023/05/30 00:43:04;;;;;;;10.15;2.20;;;14.20;83.70;;;;;;5109255;28;20053;-57
2023/05/30 00:45:29;;;;;;;8.70;1.77;;;14.10;85.10;;;;;;5107474;28;20024;-54
2023/05/30 00:47:55;;;;;;;9.70;1.83;;;14.00;86.10;;;;;;5103168;28;20028;-58
2023/05/30 00:50:25;;;;;;;9.85;2.17;;;14.00;85.90;;;;;;5110004;28;20023;-59
2023/05/30 00:52:50;;;;;;;5.93;1.92;;;14.00;87.40;;;;;;5107119;28;20031;-56
2023/05/30 00:55:16;;;;;;;6.05;1.27;;;13.90;87.60;;;;;;5107367;28;20443;-57
2023/05/30 00:57:43;;;;;;;9.63;1.85;;;13.90;87.90;;;;;;5106185;28;20042;-58
2023/05/30 01:00:13;;;;;;;13.98;2.03;;;13.80;87.10;;;;;;5104798;28;20390;-57
2023/05/30 01:02:39;;;;;;;8.00;1.58;;;13.70;88.40;;;;;;5107159;28;20020;-56
2023/05/30 01:05:06;;;;;;;6.00;1.92;;;13.70;87.00;;;;;;5105367;28;20547;-57
2023/05/30 01:07:33;;;;;;;10.13;1.40;;;13.70;87.10;;;;;;5109437;28;20122;-53
2023/05/30 01:09:59;;;;;;;9.10;1.98;;;13.60;88.00;;;;;;5105106;27;20030;-56
2023/05/30 01:13:07;;;;;;;13.48;1.80;;;13.60;89.00;;;;;;5109949;28;20020;-58
2023/05/30 01:15:39;;;;;;;9.25;1.92;;;13.60;89.80;;;;;;5092365;28;20043;-53
2023/05/30 01:18:23;;;;;;;9.40;1.65;;;13.50;90.10;;;;;;5105701;28;20020;-57
2023/05/30 01:20:51;;;;;;;5.57;1.67;;;13.40;90.40;;;;;;5103898;28;20118;-56
2023/05/30 01:24:00;;;;;;;9.18;1.42;;;13.30;90.90;;;;;;5108435;28;20026;-57
2023/05/30 01:26:41;;;;;;;12.18;2.28;;;13.20;91.10;;;;;;5070958;28;20040;-55
2023/05/30 01:29:11;;;;;;;11.02;2.08;;;13.10;91.70;;;;;;5106995;28;20023;-56
2023/05/30 01:31:37;;;;;;;9.73;1.77;;;13.10;92.30;;;;;;5108346;28;20031;-56
2023/05/30 01:34:03;;;;;;;7.97;1.20;;;13.00;92.90;;;;;;5106876;28;20038;-60
2023/05/30 01:36:30;;;;;;;7.53;2.00;;;13.00;93.80;;;;;;5108296;28;20071;-52
2023/05/30 01:38:56;;;;;;;9.10;2.28;;;13.00;93.60;;;;;;5105538;28;20447;-55
2023/05/30 01:41:47;;;;;;;12.68;1.90;;;13.00;94.20;;;;;;5108184;28;20054;-53
2023/05/30 01:44:33;;;;;;;12.77;1.60;;;12.90;95.20;;;;;;5076712;28;20085;-57
2023/05/30 01:47:12;;;;;;;7.47;2.50;;;12.80;96.30;;;;;;5100544;28;20031;-56
2023/05/30 01:49:58;;;;;;;15.48;2.15;;;12.80;97.30;;;;;;5104513;28;20028;-57
2023/05/30 01:52:30;;;;;;;14.48;2.35;;;12.80;98.20;;;;;;5107991;28;20328;-55
2023/05/30 01:55:03;;;;;;;11.13;1.80;;;12.80;99.00;;;;;;5107400;28;20118;-56
2023/05/30 01:57:29;;;;;;;4.25;1.50;;;12.70;99.80;;;;;;5103954;28;20145;-57
2023/05/30 01:59:57;;;;;;;14.70;2.60;;;12.70;99.90;;;;;;5106092;28;20107;-58
2023/05/30 02:02:23;;;;;;;8.32;1.90;;;12.70;99.90;;;;;;5105975;28;20466;-56
2023/05/30 02:04:49;;;;;;;18.50;2.60;;;12.60;99.90;;;;;;5108707;27;20024;-55
2023/05/30 02:07:15;;;;;;;9.52;1.83;;;12.60;99.90;;;;;;5106119;28;20023;-54
2023/05/30 02:09:41;;;;;;;13.63;2.42;;;12.50;99.90;;;;;;5108664;28;20076;-57
2023/05/30 02:12:08;;;;;;;13.95;2.10;;;12.50;99.90;;;;;;5105036;28;20032;-57
2023/05/30 02:14:33;;;;;;;8.32;2.10;;;12.50;99.90;;;;;;5106071;28;20478;-56
2023/05/30 02:16:59;;;;;;;11.65;1.88;;;12.50;99.90;;;;;;5105554;28;20095;-54
2023/05/30 02:19:25;;;;;;;9.02;3.28;;;12.40;99.90;;;;;;5107223;28;20015;-56
2023/05/30 02:21:50;;;;;;;10.77;1.67;;;12.30;99.90;;;;;;5105720;28;20099;-58
2023/05/30 02:24:16;;;;;;;11.85;1.73;;;12.30;99.90;;;;;;5105022;28;20565;-55
2023/05/30 02:26:41;;;;;;;10.35;1.83;;;12.30;99.90;;;;;;5104142;28;20019;-60
2023/05/30 02:29:07;;;;;;;10.95;2.67;;;12.30;99.90;;;;;;5108367;28;20110;-59
2023/05/30 02:31:33;;;;;;;20.58;2.85;;;12.20;99.90;;;;;;5104588;28;20028;-59
2023/05/30 02:33:58;;;;;;;9.23;1.88;;;12.30;99.90;;;;;;5107472;28;20024;-58
2023/05/30 02:36:24;;;;;;;11.50;2.22;;;12.20;99.90;;;;;;5104569;28;20024;-58
2023/05/30 02:38:49;;;;;;;10.27;1.92;;;12.20;99.90;;;;;;5108185;28;20016;-57
2023/05/30 02:41:15;;;;;;;8.85;2.28;;;12.20;99.90;;;;;;5106715;28;20374;-55
2023/05/30 02:43:40;;;;;;;8.15;1.42;;;12.10;99.90;;;;;;5103213;28;20114;-52
2023/05/30 02:46:06;;;;;;;14.38;2.13;;;12.10;99.90;;;;;;5104203;28;20038;-54
2023/05/30 02:48:32;;;;;;;11.02;2.10;;;12.00;99.90;;;;;;5103219;28;20040;-54
2023/05/30 02:50:57;;;;;;;11.82;2.05;;;12.00;99.90;;;;;;5103526;28;20039;-56
2023/05/30 02:53:23;;;;;;;7.85;2.55;;;12.00;99.90;;;;;;5106812;28;20027;-59
2023/05/30 02:55:48;;;;;;;18.63;1.90;;;12.00;99.90;;;;;;5106904;28;20107;-58
2023/05/30 02:58:14;;;;;;;10.45;1.75;;;12.20;99.90;;;;;;5107882;28;20043;-54
2023/05/30 03:00:40;;;;;;;10.73;1.88;;;12.10;99.90;;;;;;5104289;28;20073;-51
2023/05/30 03:03:09;;;;;;;13.80;2.25;;;12.10;99.90;;;;;;5108227;27;20504;-59
2023/05/30 03:05:35;;;;;;;10.38;1.83;;;12.10;99.90;;;;;;5115864;28;20059;-57
2023/05/30 03:08:02;;;;;;;10.77;2.20;;;12.00;99.90;;;;;;5114082;27;20058;-56
2023/05/30 03:10:27;;;;;;;8.73;2.00;;;11.90;99.90;;;;;;5115584;27;20061;-58
2023/05/30 03:12:53;;;;;;;14.98;1.75;;;11.90;99.90;;;;;;5112455;27;20023;-57
2023/05/30 03:15:20;;;;;;;13.23;1.80;;;11.80;99.90;;;;;;5112210;27;20016;-52
2023/05/30 03:17:46;;;;;;;12.50;2.28;;;11.80;99.90;;;;;;5116017;27;20034;-58
2023/05/30 03:20:12;;;;;;;13.52;2.58;;;11.80;99.90;;;;;;5111607;27;20024;-58
2023/05/30 03:22:38;;;;;;;15.23;2.25;;;11.70;99.90;;;;;;5113574;28;20069;-59
2023/05/30 03:25:05;;;;;;;9.25;2.13;;;11.70;99.90;;;;;;5110180;27;20016;-55
2023/05/30 03:27:31;;;;;;;9.15;1.80;;;11.70;99.90;;;;;;5111100;28;20114;-52
2023/05/30 03:29:56;;;;;;;13.90;2.08;;;11.60;99.90;;;;;;5112864;27;20106;-59
2023/05/30 03:32:22;;;;;;;9.15;1.85;;;11.60;99.90;;;;;;5112537;28;20031;-56
2023/05/30 03:34:48;;;;;;;17.55;2.30;;;11.50;99.90;;;;;;5112152;27;20070;-53
2023/05/30 03:37:14;;;;;;;11.50;2.35;;;11.50;99.90;;;;;;5111578;28;20038;-58
2023/05/30 03:39:39;;;;;;;10.48;1.95;;;11.40;99.90;;;;;;5112965;27;20034;-54
2023/05/30 03:42:06;;;;;;;11.98;2.78;;;11.40;99.90;;;;;;5110951;27;20122;-56
2023/05/30 03:44:31;;;;;;;8.60;1.70;;;11.40;99.90;;;;;;5113561;27;20032;-57
2023/05/30 03:46:58;;;;;;;17.85;2.67;;;11.40;99.90;;;;;;5109378;28;20043;-58
2023/05/30 03:49:23;;;;;;;20.80;2.85;;;11.30;99.90;;;;;;5112079;28;20026;-60
2023/05/30 03:51:49;;;;;;;11.88;1.63;;;11.30;99.90;;;;;;5111809;27;20041;-56
2023/05/30 03:54:14;;;;;;;18.67;2.17;;;11.30;99.90;;;;;;5109489;28;20436;-57
2023/05/30 03:56:40;;;;;;;12.02;2.22;;;11.30;99.90;;;;;;5111831;28;20034;-59
2023/05/30 03:59:07;;;;;;;7.07;2.50;;;11.20;99.90;;;;;;5109780;28;20038;-57
2023/05/30 04:01:33;;;;;;;9.10;2.40;;;11.20;99.90;;;;;;5115193;28;20036;-59
2023/05/30 04:03:58;;;;;;;11.57;2.78;;;11.20;99.90;;;;;;5107812;27;20392;-58
2023/05/30 04:06:24;;;;;;;18.10;2.72;;;11.20;99.90;;;;;;5111350;28;20724;-55
2023/05/30 04:08:50;;;;;;;13.88;2.60;;;11.20;99.90;;;;;;5114102;28;20054;-56
2023/05/30 04:11:17;;;;;;;17.95;3.67;;;11.20;99.90;;;;;;5113652;28;20028;-57
2023/05/30 04:13:42;;;;;;;19.80;2.70;;;11.10;99.90;;;;;;5108729;28;20030;-59
2023/05/30 04:16:08;;;;;;;13.82;3.40;;;11.10;99.90;;;;;;5107189;28;20028;-54
2023/05/30 04:18:36;;;;;;;24.20;3.13;;;11.20;99.90;;;;;;5107229;28;20024;-60
2023/05/30 04:21:02;;;;;;;17.30;3.70;;;11.10;99.90;;;;;;5107050;28;20405;-60
2023/05/30 04:23:27;;;;;;;20.33;2.60;;;11.10;99.90;;;;;;5106954;28;20032;-59
2023/05/30 04:25:57;;;;;;;11.25;2.47;;;11.10;99.90;;;;;;5105017;28;20031;-56
2023/05/30 04:28:23;;;;;;;21.00;3.08;;;11.20;99.90;;;;;;5106237;28;20039;-57
2023/05/30 04:30:49;;;;;;;18.25;3.40;;;11.20;99.90;;;;;;5103192;28;20020;-53
2023/05/30 04:33:19;;;;;;;15.38;3.13;;;11.20;99.90;;;;;;5106484;28;20031;-58
2023/05/30 04:35:44;;;;;;;14.65;3.25;;;11.30;99.90;;;;;;5107591;28;20026;-59
2023/05/30 04:38:10;;;;;;;20.02;3.45;;;11.20;99.90;;;;;;5105537;28;20035;-60
2023/05/30 04:40:36;;;;;;;13.23;3.35;;;11.20;99.90;;;;;;5110358;28;20023;-57
2023/05/30 04:43:02;;;;;;;13.70;3.95;;;11.20;99.90;;;;;;5108232;28;20027;-57
2023/05/30 04:45:29;;;;;;;21.33;3.05;;;11.20;99.90;;;;;;5105164;28;20063;-57
2023/05/30 04:47:55;;;;;;;22.23;2.70;;;11.20;99.90;;;;;;5108341;28;20527;-60
2023/05/30 04:50:21;;;;;;;24.23;4.18;;;11.10;99.90;;;;;;5106732;28;20039;-60
2023/05/30 04:52:46;;;;;;;13.80;3.03;;;11.10;99.90;;;;;;5106706;28;20486;-54
2023/05/30 04:55:12;;;;;;;10.38;2.65;;;11.20;99.90;;;;;;5105458;28;20074;-57
2023/05/30 04:57:38;;;;;;;17.90;3.35;;;11.20;99.90;;;;;;5109143;28;20040;-56
2023/05/30 05:00:09;;;;;;;11.40;3.05;;;11.10;99.90;;;;;;5105208;28;20023;-59
2023/05/30 05:02:38;;;;;;;23.77;3.90;;;11.20;99.90;;;;;;5105613;28;20403;-56
2023/05/30 05:05:05;;;;;;;17.25;3.90;;;11.10;99.90;;;;;;5108334;28;20027;-58
2023/05/30 05:07:31;;;;;;;18.90;3.25;;;11.20;99.90;;;;;;5106289;28;20039;-57
2023/05/30 05:09:56;;;;;;;15.82;3.75;;;11.30;99.90;;;;;;5106471;28;20040;-59
2023/05/30 05:12:22;;;;;;;28.35;5.53;;;11.40;99.90;;;;;;5107379;28;20479;-57
2023/05/30 05:14:47;;;;;;;19.35;4.28;;;11.40;99.90;;;;;;5106425;28;20023;-58
2023/05/30 05:17:13;;;;;;;19.90;4.47;;;11.40;99.90;;;;;;5105987;28;20027;-58
2023/05/30 05:19:39;;;;;;;21.27;4.13;;;11.50;99.90;;;;;;5106310;28;20080;-59
2023/05/30 05:22:05;;;;;;;15.45;3.53;;;11.50;99.90;;;;;;5106242;28;20023;-57
2023/05/30 05:24:31;;;;;;;22.83;4.50;;;11.50;99.90;;;;;;5108362;28;20024;-58
2023/05/30 05:26:57;;;;;;;19.33;4.43;;;11.60;99.90;;;;;;5109260;28;20035;-59
2023/05/30 05:29:23;;;;;;;32.47;5.40;;;11.60;99.90;;;;;;5106901;28;20032;-58
2023/05/30 05:31:48;;;;;;;21.00;4.10;;;11.60;99.90;;;;;;5106858;28;20088;-57
2023/05/30 05:34:14;;;;;;;16.88;4.07;;;11.60;99.90;;;;;;5104874;28;20039;-59
2023/05/30 05:36:42;;;;;;;16.40;4.15;;;11.70;99.90;;;;;;5103770;28;20051;-58
2023/05/30 05:39:08;;;;;;;21.67;4.60;;;11.70;99.90;;;;;;5109125;28;20062;-59
2023/05/30 05:41:34;;;;;;;20.48;3.95;;;11.70;99.90;;;;;;5106235;28;20054;-58
2023/05/30 05:44:01;;;;;;;19.70;4.07;;;11.70;99.90;;;;;;5106711;28;20055;-58
2023/05/30 05:46:26;;;;;;;26.13;4.47;;;11.70;99.90;;;;;;5105732;28;20524;-57
2023/05/30 05:48:54;;;;;;;13.02;4.10;;;11.70;99.90;;;;;;5104941;28;20671;-59
2023/05/30 05:51:20;;;;;;;27.73;4.82;;;11.80;99.90;;;;;;5109021;28;20038;-56
2023/05/30 05:53:45;;;;;;;26.38;4.32;;;11.80;99.90;;;;;;5107332;28;20015;-57
2023/05/30 05:56:11;;;;;;;24.15;5.32;;;11.70;99.90;;;;;;5107190;28;20050;-58
2023/05/30 05:58:37;;;;;;;19.92;4.10;;;11.80;99.90;;;;;;5105187;28;20039;-59
2023/05/30 06:01:03;;;;;;;24.83;4.47;;;11.80;99.90;;;;;;5106639;28;20054;-57
2023/05/30 06:03:28;;;;;;;25.38;5.05;;;11.90;99.90;;;;;;5105486;28;20032;-55
2023/05/30 06:05:54;;;;;;;17.00;3.97;;;11.90;99.90;;;;;;5106036;28;20032;-57
2023/05/30 06:08:19;;;;;;;17.05;4.85;;;12.00;99.90;;;;;;5107996;28;20024;-59
2023/05/30 06:10:45;;;;;;;14.45;4.25;;;11.90;99.90;;;;;;5106904;28;20076;-58
2023/05/30 06:13:11;;;;;;;19.10;4.63;;;11.90;99.90;;;;;;5109574;28;20493;-57
2023/05/30 06:15:36;;;;;;;14.82;4.40;;;12.00;99.90;;;;;;5101559;28;20134;-58
2023/05/30 06:18:02;;;;;;;19.60;4.25;;;12.10;99.90;;;;;;5106239;28;20462;-58
2023/05/30 06:20:27;;;;;;;19.15;4.30;;;12.20;99.90;;;;;;5104328;28;20066;-58
2023/05/30 06:22:53;;;;;;;14.95;4.78;;;12.20;99.90;;;;;;5110072;28;20028;-56
2023/05/30 06:25:18;;;;;;;24.10;5.60;;;12.30;99.90;;;;;;5102436;28;20034;-57
2023/05/30 06:27:44;;;;;;;11.93;4.75;;;12.40;99.90;;;;;;5104216;28;20392;-58
2023/05/30 06:30:10;;;;;;;18.58;4.80;;;12.50;99.90;;;;;;5103510;28;20028;-56
2023/05/30 06:32:35;;;;;;;23.73;5.78;;;12.50;99.90;;;;;;5104873;28;20098;-54
2023/05/30 06:35:01;;;;;;;24.48;5.38;;;12.40;99.90;;;;;;5109860;28;20035;-57
2023/05/30 06:37:27;;;;;;;24.27;5.38;;;12.40;99.90;;;;;;5105774;28;20032;-58
2023/05/30 06:39:52;;;;;;;16.75;4.78;;;12.40;99.90;;;;;;5109698;27;20042;-57
2023/05/30 06:42:18;;;;;;;26.42;5.78;;;12.40;99.90;;;;;;5106514;28;20031;-56
2023/05/30 06:44:43;;;;;;;24.92;5.40;;;12.50;99.90;;;;;;5104293;28;20028;-58
2023/05/30 06:47:09;;;;;;;29.45;5.88;;;12.50;99.90;;;;;;5108176;28;20092;-54
2023/05/30 06:49:35;;;;;;;29.42;5.50;;;12.40;99.90;;;;;;5106767;28;20378;-51
2023/05/30 06:52:00;;;;;;;23.27;5.18;;;12.50;99.90;;;;;;5106993;28;20346;-55
2023/05/30 06:54:26;;;;;;;20.85;4.95;;;12.50;99.90;;;;;;5106086;28;20063;-56
2023/05/30 06:56:51;;;;;;;18.40;5.75;;;12.50;99.90;;;;;;5104828;28;20282;-51
2023/05/30 06:59:17;;;;;;;20.38;5.28;;;12.50;99.90;;;;;;5106555;28;20043;-55
2023/05/30 07:01:42;;;;;;;26.65;5.93;;;12.50;99.90;;;;;;5105593;28;20043;-57
2023/05/30 07:04:08;;;;;;;13.73;5.25;;;12.60;99.90;;;;;;5108892;28;20028;-56
2023/05/30 07:06:33;;;;;;;28.33;5.78;;;12.60;99.90;;;;;;5106957;28;20035;-59
2023/05/30 07:08:59;;;;;;;19.80;5.30;;;12.80;99.90;;;;;;5108913;28;20382;-57
2023/05/30 07:11:25;;;;;;;21.33;5.07;;;12.80;99.90;;;;;;5102474;28;20077;-51
2023/05/30 07:13:51;;;;;;;30.00;5.57;;;12.90;99.90;;;;;;5108889;28;20552;-53
2023/05/30 07:16:17;;;;;;;22.42;5.25;;;13.00;99.90;;;;;;5106840;28;20142;-53
2023/05/30 07:18:43;;;;;;;15.55;4.57;;;13.00;99.90;;;;;;5109068;28;20090;-55
2023/05/30 07:21:08;;;;;;;20.77;7.20;;;13.10;99.90;;;;;;5104221;28;20076;-59
2023/05/30 07:23:35;;;;;;;22.98;4.72;;;13.20;99.90;;;;;;5107939;28;20055;-57
2023/05/30 07:26:00;;;;;;;16.92;5.13;;;13.20;99.90;;;;;;5108033;28;20036;-58
2023/05/30 07:28:26;;;;;;;19.38;5.40;;;13.30;99.90;;;;;;5107032;28;20034;-57
2023/05/30 07:30:51;;;;;;;27.83;6.05;;;13.30;99.90;;;;;;5104122;28;20104;-52
2023/05/30 07:33:17;;;;;;;20.67;4.93;;;13.30;99.90;;;;;;5104478;28;20416;-56
2023/05/30 07:35:43;;;;;;;17.92;5.15;;;13.30;99.90;;;;;;5106210;28;20031;-57
2023/05/30 07:38:10;;;;;;;19.80;4.80;;;13.30;99.90;;;;;;5104648;28;20035;-53
2023/05/30 07:40:35;;;;;;;17.35;5.60;;;13.40;99.90;;;;;;5102601;28;20024;-55
2023/05/30 07:43:01;;;;;;;17.25;5.38;;;13.50;99.90;;;;;;5103505;28;20594;-60
2023/05/30 07:45:26;;;;;;;16.10;4.75;;;13.60;99.90;;;;;;5101967;28;20043;-59
2023/05/30 07:47:52;;;;;;;16.70;5.18;;;13.70;99.90;;;;;;5105676;28;20515;-58
2023/05/30 07:50:17;;;;;;;19.33;5.68;;;13.80;99.90;;;;;;5108258;28;20070;-58
2023/05/30 07:52:43;;;;;;;16.08;4.47;;;14.00;99.90;;;;;;5108763;28;20122;-58
2023/05/30 07:55:08;;;;;;;21.90;5.03;;;14.10;99.90;;;;;;5101144;28;20032;-55
2023/05/30 07:57:34;;;;;;;17.30;4.68;;;14.10;99.90;;;;;;5101446;28;20106;-58
2023/05/30 08:00:00;;;;;;;28.05;5.25;;;14.10;99.90;;;;;;5110446;28;20096;-58
2023/05/30 08:02:25;;;;;;;22.30;5.32;;;14.00;99.90;;;;;;5107076;28;20017;-59
2023/05/30 08:04:52;;;;;;;24.13;5.18;;;14.00;99.90;;;;;;5101130;28;20028;-59
2023/05/30 08:07:18;;;;;;;18.73;5.10;;;14.20;99.90;;;;;;5110406;28;20016;-59
2023/05/30 08:09:44;;;;;;;20.45;5.25;;;14.30;99.90;;;;;;5113871;28;20111;-59
2023/05/30 08:12:17;;;;;;;11.95;4.63;;;14.50;99.90;;;;;;5110513;28;20114;-59
2023/05/30 08:14:43;;;;;;;19.15;5.32;;;14.40;99.90;;;;;;5104911;28;20098;-61
2023/05/30 08:17:11;;;;;;;31.52;5.22;;;14.40;99.90;;;;;;5108404;28;20146;-58
2023/05/30 08:19:36;;;;;;;21.13;5.22;;;14.40;99.90;;;;;;5113163;28;20059;-58
2023/05/30 08:22:03;;;;;;;20.23;5.55;;;14.40;99.90;;;;;;5109757;28;20054;-59
2023/05/30 08:24:29;;;;;;;16.75;4.47;;;14.40;99.90;;;;;;5112122;28;20053;-53
2023/05/30 08:26:54;;;;;;;24.10;5.90;;;14.50;99.90;;;;;;5105105;28;20019;-57
2023/05/30 08:29:20;;;;;;;17.63;4.07;;;14.70;99.90;;;;;;5107490;28;20059;-58
2023/05/30 08:31:46;;;;;;;15.85;5.15;;;14.80;99.90;;;;;;5100782;28;20114;-59
2023/05/30 08:34:11;;;;;;;24.05;5.95;;;14.90;99.90;;;;;;5109059;28;20027;-58
2023/05/30 08:36:37;;;;;;;15.10;4.97;;;14.90;99.90;;;;;;5106525;28;20471;-58
2023/05/30 08:39:03;;;;;;;19.85;5.80;;;15.10;99.90;;;;;;5104639;28;20370;-59
2023/05/30 08:41:30;;;;;;;18.98;5.43;;;15.20;99.90;;;;;;5105308;28;20034;-56
2023/05/30 08:43:55;;;;;;;25.45;5.50;;;15.30;99.90;;;;;;5108294;28;21631;-59
2023/05/30 08:46:21;;;;;;;20.48;5.43;;;15.30;99.90;;;;;;5105461;28;20050;-56
2023/05/30 08:48:48;;;;;;;26.52;5.88;;;15.30;99.90;;;;;;5105576;28;20046;-54
2023/05/30 08:51:15;;;;;;;19.77;5.90;;;15.30;99.90;;;;;;5105697;28;20081;-59
2023/05/30 08:53:51;;;;;;;24.05;6.20;;;15.40;99.90;;;;;;5105220;28;20350;-58
2023/05/30 08:56:37;;;;;;;17.23;5.72;;;15.40;99.90;;;;;;5106701;28;20142;-60
2023/05/30 08:59:08;;;;;;;18.60;5.63;;;15.60;99.90;;;;;;5103943;28;20016;-55
2023/05/30 09:01:34;;;;;;;22.73;6.60;;;15.60;99.90;;;;;;5106563;28;20020;-57
2023/05/30 09:04:01;;;;;;;17.00;5.93;;;15.60;99.90;;;;;;5107275;28;20019;-60
2023/05/30 09:06:27;;;;;;;21.60;5.72;;;15.50;99.90;;;;;;5106870;27;20039;-61
2023/05/30 09:08:54;;;;;;;17.88;5.95;;;15.60;99.90;;;;;;5104786;28;20104;-58
2023/05/30 09:11:21;;;;;;;17.55;6.10;;;15.80;99.90;;;;;;5106907;28;20057;-56
2023/05/30 09:13:48;;;;;;;16.08;5.88;;;15.90;99.90;;;;;;5099694;28;20023;-55
2023/05/30 09:16:14;;;;;;;19.13;6.68;;;16.00;99.90;;;;;;5104939;28;20042;-58
2023/05/30 09:18:39;;;;;;;18.55;7.07;;;16.10;99.90;;;;;;5106920;28;20547;-59
2023/05/30 09:21:05;;;;;;;21.77;6.47;;;16.20;99.90;;;;;;5107025;28;20028;-57
2023/05/30 09:23:32;;;;;;;17.20;5.15;;;16.10;99.90;;;;;;5105788;28;20059;-57
2023/05/30 09:25:59;;;;;;;12.90;5.32;;;16.20;99.90;;;;;;5104414;27;20038;-60
2023/05/30 09:28:26;;;;;;;25.63;5.93;;;16.30;99.90;;;;;;5105076;28;20019;-57
2023/05/30 09:31:00;;;;;;;22.05;6.40;;;16.50;99.90;;;;;;5105670;28;20051;-53
2023/05/30 09:33:51;;;;;;;17.45;6.22;;;16.60;99.90;;;;;;5103951;28;20042;-58
2023/05/30 09:36:21;;;;;;;14.32;5.13;;;16.90;99.90;;;;;;5105387;28;20045;-59
2023/05/30 09:38:56;;;;;;;17.17;5.47;;;17.10;99.90;;;;;;5106780;28;20106;-61
2023/05/30 09:41:26;;;;;;;12.88;4.85;;;17.30;99.90;;;;;;5104198;28;20519;-58
2023/05/30 09:43:55;;;;;;;18.70;5.82;;;17.30;99.90;;;;;;5105504;28;20023;-60
2023/05/30 09:46:23;;;;;;;17.35;5.63;;;17.40;99.90;;;;;;5105704;28;20036;-60
2023/05/30 09:48:49;;;;;;;20.33;5.85;;;17.30;99.90;;;;;;5105238;28;20107;-56
2023/05/30 09:51:16;;;;;;;17.15;5.97;;;17.50;99.90;;;;;;5106256;28;20023;-54
2023/05/30 09:54:02;;;;;;;17.10;6.32;;;17.50;99.90;;;;;;5107105;28;20511;-60
2023/05/30 09:56:32;;;;;;;18.58;5.32;;;17.50;99.90;;;;;;5105729;28;20031;-57
2023/05/30 09:59:02;;;;;;;16.33;5.55;;;17.60;99.90;;;;;;5106318;28;20102;-57
2023/05/30 10:01:38;;;;;;;21.63;6.15;;;17.60;99.90;;;;;;5105831;28;20024;-61
2023/05/30 10:04:21;;;;;;;15.40;5.75;;;17.70;99.90;;;;;;5102595;28;20023;-57
2023/05/30 10:06:49;;;;;;;24.23;6.53;;;17.80;99.90;;;;;;5106681;28;20138;-55
2023/05/30 10:09:15;;;;;;;15.38;5.80;;;18.00;99.90;;;;;;5109583;28;20032;-57
2023/05/30 10:11:43;;;;;;;17.70;6.45;;;18.00;99.90;;;;;;5108921;28;20024;-57
2023/05/30 10:14:09;;;;;;;15.27;6.13;;;18.20;99.90;;;;;;5108227;28;20020;-57
2023/05/30 10:16:40;;;;;;;18.38;6.10;;;18.30;99.90;;;;;;5105548;28;20027;-58
2023/05/30 10:19:11;;;;;;;15.82;5.50;;;18.70;99.90;;;;;;5106938;28;20034;-57
2023/05/30 10:21:39;;;;;;;21.00;6.68;;;18.80;99.90;;;;;;5109017;28;20019;-59
2023/05/30 10:24:09;;;;;;;17.35;5.57;;;18.80;99.90;;;;;;5108067;28;20568;-54
2023/05/30 10:26:38;;;;;;;21.50;5.45;;;18.90;99.90;;;;;;5110949;28;20035;-57
2023/05/30 10:29:07;;;;;;;16.27;5.10;;;19.10;99.90;;;;;;5109025;28;20485;-53
2023/05/30 10:31:34;;;;;;;12.95;4.93;;;19.50;99.90;;;;;;5104866;28;20032;-57
2023/05/30 10:34:04;;;;;;;18.25;4.55;;;19.70;99.30;;;;;;5107210;28;20043;-57
2023/05/30 10:36:30;;;;;;;16.23;5.93;;;19.90;98.90;;;;;;5098171;27;20116;-55
2023/05/30 10:39:35;;;;;;;14.73;5.25;;;19.80;97.30;;;;;;5103054;28;20027;-54
2023/05/30 10:42:13;;;;;;;20.08;4.70;;;19.80;96.30;;;;;;5103300;28;20036;-56
2023/05/30 10:44:54;;;;;;;19.15;5.65;;;19.90;95.80;;;;;;5108050;28;20503;-56
2023/05/30 10:47:29;;;;;;;14.32;4.25;;;19.90;94.10;;;;;;5102602;28;20172;-54
2023/05/30 10:49:57;;;;;;;21.20;5.70;;;20.00;95.20;;;;;;5103630;28;20020;-55
2023/05/30 10:52:33;;;;;;;17.40;4.43;;;20.20;93.80;;;;;;5104812;28;20485;-54
2023/05/30 10:55:00;;;;;;;19.95;5.32;;;20.00;93.40;;;;;;5104225;28;20036;-58
2023/05/30 10:57:31;;;;;;;20.13;5.88;;;20.00;92.90;;;;;;5101191;28;20032;-53
2023/05/30 11:00:10;;;;;;;20.48;5.18;;;20.00;93.50;;;;;;5099161;28;20474;-57
2023/05/30 11:02:37;;;;;;;15.05;4.20;;;19.90;92.10;;;;;;5106716;28;20572;-56
2023/05/30 11:05:07;;;;;;;13.43;4.82;;;20.20;93.10;;;;;;5109239;28;20023;-57
2023/05/30 11:07:38;;;;;;;16.23;5.38;;;20.50;92.30;;;;;;5106058;28;20031;-57
2023/05/30 11:10:08;;;;;;;15.93;4.65;;;20.70;91.10;;;;;;5099632;28;20031;-54
2023/05/30 11:12:41;;;;;;;17.42;4.72;;;20.80;90.10;;;;;;5106578;28;20035;-55
2023/05/30 11:15:07;;;;;;;20.73;4.65;;;21.00;91.70;;;;;;5103432;28;20035;-57
2023/05/30 11:17:37;;;;;;;17.23;4.53;;;21.30;88.20;;;;;;5106171;28;20426;-55
2023/05/30 11:20:08;;;;;;;18.35;4.03;;;21.50;87.30;;;;;;5105015;28;20072;-58
2023/05/30 11:22:34;;;;;;;13.38;4.68;;;21.60;85.00;;;;;;5105055;28;20102;-57
2023/05/30 11:25:23;;;;;;;13.98;4.47;;;21.50;83.70;;;;;;5109989;28;20024;-57
2023/05/30 11:28:04;;;;;;;9.68;3.78;;;21.30;82.10;;;;;;5111854;28;20020;-57
2023/05/30 11:30:40;;;;;;;9.02;3.83;;;21.40;82.10;;;;;;5105445;28;20039;-54
2023/05/30 11:33:16;;;;;;;14.13;3.75;;;21.40;83.50;;;;;;5109431;28;20027;-54
2023/05/30 11:35:47;;;;;;;10.75;3.85;;;21.60;81.00;;;;;;5111608;28;20024;-58
2023/05/30 11:38:20;;;;;;;12.45;3.53;;;21.70;75.50;;;;;;5107880;28;20020;-60
2023/05/30 11:40:46;;;;;;;11.55;3.70;;;22.00;80.10;;;;;;5107117;28;20529;-57
2023/05/30 11:43:15;;;;;;;9.93;3.13;;;21.80;78.80;;;;;;5109162;28;20384;-57
2023/05/30 11:45:40;;;;;;;11.75;3.08;;;22.00;72.60;;;;;;5108446;28;20020;-59
2023/05/30 11:48:10;;;;;;;8.40;2.90;;;22.00;69.20;;;;;;5102625;28;20210;-59
2023/05/30 11:50:40;;;;;;;8.52;3.15;;;22.00;69.40;;;;;;5109559;28;20032;-57
2023/05/30 11:53:10;;;;;;;7.82;2.88;;;22.00;68.50;;;;;;5106369;28;20076;-58
2023/05/30 11:55:36;;;;;;;10.63;3.75;;;22.20;68.60;;;;;;5105224;28;20073;-58
2023/05/30 11:58:02;;;;;;;10.82;3.08;;;22.40;67.80;;;;;;5103709;28;20431;-56
2023/05/30 12:00:27;;;;;;;10.68;3.78;;;22.50;65.40;;;;;;5104022;28;20469;-59
2023/05/30 12:02:53;;;;;;;9.00;3.33;;;22.70;64.90;;;;;;5108462;28;20027;-58
2023/05/30 12:05:19;;;;;;;10.63;4.07;;;23.00;65.00;;;;;;5105430;28;20557;-58
2023/05/30 12:07:48;;;;;;;13.52;4.10;;;23.10;65.10;;;;;;5104682;28;20123;-58
2023/05/30 12:10:13;;;;;;;8.88;3.30;;;23.20;64.20;;;;;;5106609;28;20059;-58
2023/05/30 12:12:39;;;;;;;8.77;3.28;;;23.40;67.30;;;;;;5109182;28;20473;-59
2023/05/30 12:15:06;;;;;;;12.63;4.28;;;23.20;59.30;;;;;;5105747;28;20039;-58
2023/05/30 12:17:32;;;;;;;6.80;3.40;;;23.20;58.90;;;;;;5110012;28;20297;-57
2023/05/30 12:20:09;;;;;;;9.85;3.72;;;23.20;60.10;;;;;;5110206;28;20027;-55
2023/05/30 12:22:35;;;;;;;11.52;3.75;;;23.10;60.30;;;;;;5105864;27;20032;-55
2023/05/30 12:25:09;;;;;;;13.60;3.40;;;23.10;59.30;;;;;;5110449;28;20027;-60
2023/05/30 12:27:34;;;;;;;7.45;2.80;;;23.10;60.80;;;;;;5106236;28;20066;-52
2023/05/30 12:30:17;;;;;;;7.03;3.45;;;22.90;60.70;;;;;;5110541;28;20028;-55
2023/05/30 12:32:44;;;;;;;10.70;3.38;;;23.20;64.10;;;;;;5107215;28;20023;-54
2023/05/30 12:35:13;;;;;;;11.75;3.40;;;23.10;60.70;;;;;;5108188;28;20062;-54
2023/05/30 12:37:39;;;;;;;10.10;3.72;;;22.80;61.50;;;;;;5111433;28;20053;-56
2023/05/30 12:40:06;;;;;;;17.92;3.70;;;23.20;62.30;;;;;;5106288;28;20493;-59
2023/05/30 12:42:33;;;;;;;8.60;4.38;;;23.20;61.10;;;;;;5107950;28;20132;-56